Time;durP1;ratioP1;P1;durP2;ratioP2;P2;SDS_P1;SDS_P2;PMS_P1;PMS_P2;Temp;Humidity;BMP_temperature;BMP_pressure;BME280_temperature;BME280_humidity;BME280_pressure;Samples;Min_cycle;Max_cycle;Signal;HPM_P1;HPM_P2
2021/09/30 00:00:08;;;;;;;0.90;0.90;;;12.10;74.20;;;;;;5001295;28;20460;-42
2021/09/30 00:02:35;;;;;;;0.87;0.80;;;12.10;73.90;;;;;;5015879;28;20465;-42
2021/09/30 00:05:03;;;;;;;4.13;0.93;;;12.00;74.00;;;;;;5001312;28;20488;-42
2021/09/30 00:07:30;;;;;;;1.20;1.10;;;12.00;74.30;;;;;;4999292;28;20441;-42
2021/09/30 00:09:57;;;;;;;1.40;1.30;;;11.90;74.70;;;;;;4997915;28;20458;-42
2021/09/30 00:12:27;;;;;;;3.33;1.00;;;11.90;74.90;;;;;;5001786;28;20470;-42
2021/09/30 00:15:05;;;;;;;2.97;0.83;;;11.90;75.10;;;;;;4999897;28;20560;-42
2021/09/30 00:17:53;;;;;;;2.63;0.73;;;11.90;74.90;;;;;;5000039;28;20457;-42
2021/09/30 00:34:16;;;;;;;1.47;1.00;;;11.80;75.70;;;;;;5001716;28;20857;-42
2021/09/30 00:40:10;;;;;;;1.10;0.80;;;11.70;75.80;;;;;;4997168;28;21071;-42
2021/09/30 00:47:53;;;;;;;1.00;0.90;;;11.60;75.70;;;;;;5002520;28;20464;-42
2021/09/30 01:31:38;;;;;;;1.70;1.60;;;11.30;76.90;;;;;;4947968;28;20463;-42
2021/09/30 02:22:48;;;;;;;2.97;1.20;;;10.90;77.90;;;;;;5003306;28;20464;-42
2021/09/30 02:58:34;;;;;;;0.73;0.70;;;10.60;78.80;;;;;;5002976;28;20460;-43
2021/09/30 03:01:09;;;;;;;1.27;1.00;;;10.50;78.50;;;;;;5011875;28;20475;-44
2021/09/30 03:03:37;;;;;;;1.03;1.03;;;10.60;78.70;;;;;;5008893;28;20977;-44
2021/09/30 03:06:05;;;;;;;2.00;1.00;;;10.60;78.80;;;;;;5011762;28;20480;-44
2021/09/30 03:08:41;;;;;;;1.30;0.93;;;10.50;78.90;;;;;;5010913;28;21076;-44
2021/09/30 03:11:09;;;;;;;2.57;1.87;;;10.50;78.80;;;;;;5006223;28;20460;-44
2021/09/30 03:13:37;;;;;;;2.37;1.37;;;10.50;78.80;;;;;;5008615;28;20503;-44
2021/09/30 03:16:11;;;;;;;2.13;1.10;;;10.60;78.50;;;;;;5006647;28;20475;-44
2021/09/30 03:23:44;;;;;;;1.50;0.80;;;10.50;79.10;;;;;;5010954;28;20467;-44
2021/09/30 03:26:12;;;;;;;2.73;1.30;;;10.50;79.20;;;;;;5008087;28;20492;-44
2021/09/30 03:28:40;;;;;;;2.00;1.20;;;10.50;79.30;;;;;;5026114;28;20453;-44
2021/09/30 03:31:09;;;;;;;2.57;1.07;;;10.50;79.30;;;;;;5008734;28;20475;-44
2021/09/30 03:33:37;;;;;;;1.27;0.93;;;10.50;79.30;;;;;;5008727;28;20986;-44
2021/09/30 03:36:04;;;;;;;3.17;1.20;;;10.50;79.20;;;;;;5012567;28;20556;-44
2021/09/30 03:38:31;;;;;;;1.40;1.17;;;10.50;79.40;;;;;;5005670;28;20460;-44
2021/09/30 03:40:58;;;;;;;2.00;1.13;;;10.50;79.30;;;;;;5012530;28;20991;-44
2021/09/30 03:43:26;;;;;;;1.00;0.87;;;10.50;79.30;;;;;;5009331;28;20469;-44
2021/09/30 03:45:53;;;;;;;1.07;1.00;;;10.40;79.20;;;;;;5009056;28;20488;-44
2021/09/30 03:48:20;;;;;;;1.63;1.40;;;10.40;79.10;;;;;;5010865;28;20460;-44
2021/09/30 04:01:15;;;;;;;1.57;1.00;;;10.30;79.20;;;;;;5008058;28;20464;-44
2021/09/30 04:03:42;;;;;;;1.07;0.90;;;10.30;78.90;;;;;;5011768;28;20469;-44
2021/09/30 04:06:09;;;;;;;2.73;1.10;;;10.30;79.10;;;;;;5011013;28;20488;-44
2021/09/30 04:08:37;;;;;;;1.60;1.07;;;10.30;79.30;;;;;;5007915;28;20484;-45
2021/09/30 04:11:05;;;;;;;1.97;1.50;;;10.20;79.40;;;;;;5008558;28;20457;-45
2021/09/30 04:13:31;;;;;;;2.13;1.23;;;10.30;79.70;;;;;;5008241;28;20483;-44
2021/09/30 04:15:58;;;;;;;3.00;1.40;;;10.20;79.60;;;;;;5011418;28;20798;-44
2021/09/30 04:18:26;;;;;;;1.93;1.20;;;10.30;79.40;;;;;;5015240;28;20468;-44
2021/09/30 04:20:53;;;;;;;2.97;1.20;;;10.20;79.30;;;;;;5011283;28;20467;-44
2021/09/30 04:23:20;;;;;;;2.03;1.40;;;10.20;79.40;;;;;;5008407;28;20464;-44
2021/09/30 04:25:47;;;;;;;2.53;1.30;;;10.30;79.30;;;;;;5008931;28;20650;-44
2021/09/30 04:28:14;;;;;;;2.43;1.30;;;10.20;79.30;;;;;;5007929;28;20457;-44
2021/09/30 04:30:42;;;;;;;3.50;1.30;;;10.30;79.20;;;;;;5008625;28;21048;-44
2021/09/30 04:33:09;;;;;;;2.37;1.47;;;10.20;79.20;;;;;;5008158;28;20945;-44
2021/09/30 04:35:38;;;;;;;5.03;1.83;;;10.20;79.20;;;;;;5009071;28;20479;-44
2021/09/30 04:38:09;;;;;;;1.60;1.37;;;10.20;79.30;;;;;;5009862;28;20464;-44
2021/09/30 04:40:36;;;;;;;2.73;1.47;;;10.10;79.30;;;;;;5008015;28;20508;-45
2021/09/30 04:43:03;;;;;;;3.23;1.77;;;10.10;79.20;;;;;;5008171;28;20499;-45
2021/09/30 04:45:30;;;;;;;4.83;1.70;;;10.00;79.50;;;;;;5009027;28;20457;-45
2021/09/30 04:47:57;;;;;;;2.20;1.30;;;10.00;79.60;;;;;;5006437;28;20471;-45
2021/09/30 04:50:24;;;;;;;3.27;1.77;;;10.00;79.80;;;;;;5010648;28;20461;-45
2021/09/30 04:52:53;;;;;;;2.37;1.57;;;9.90;79.90;;;;;;5009134;28;20452;-45
2021/09/30 04:55:20;;;;;;;1.57;1.40;;;9.90;79.80;;;;;;5010912;28;20458;-45
2021/09/30 04:57:47;;;;;;;3.80;1.57;;;9.80;80.00;;;;;;5009148;28;20971;-45
2021/09/30 05:00:14;;;;;;;2.03;1.30;;;9.80;80.00;;;;;;5011701;28;20876;-45
2021/09/30 05:02:40;;;;;;;7.50;1.67;;;9.80;79.90;;;;;;5006499;28;20458;-45
2021/09/30 05:05:08;;;;;;;3.50;1.30;;;9.80;79.70;;;;;;5010086;28;20532;-45
2021/09/30 05:07:35;;;;;;;1.33;1.23;;;9.80;79.90;;;;;;5009513;28;20483;-45
2021/09/30 05:10:03;;;;;;;1.83;1.30;;;9.80;80.00;;;;;;5009219;28;20448;-45
2021/09/30 05:12:30;;;;;;;3.50;1.70;;;9.70;80.10;;;;;;5010755;28;20454;-45
2021/09/30 05:14:57;;;;;;;2.03;1.77;;;9.70;80.30;;;;;;5022438;28;20903;-44
2021/09/30 05:17:24;;;;;;;4.70;2.40;;;9.70;80.40;;;;;;5023431;28;20903;-44
2021/09/30 05:19:51;;;;;;;3.10;1.80;;;9.70;80.50;;;;;;5003636;28;20472;-44
2021/09/30 05:22:18;;;;;;;2.80;2.50;;;9.70;80.50;;;;;;5010709;28;20468;-44
2021/09/30 05:24:44;;;;;;;3.10;2.10;;;9.70;80.50;;;;;;5005511;28;20452;-44
2021/09/30 05:27:11;;;;;;;4.67;1.77;;;9.70;80.50;;;;;;5008394;28;20532;-44
2021/09/30 05:29:38;;;;;;;23.47;12.80;;;9.70;80.60;;;;;;5009406;28;20469;-44
2021/09/30 05:32:05;;;;;;;34.53;20.97;;;9.70;80.50;;;;;;5008635;28;20467;-44
2021/09/30 05:34:32;;;;;;;26.27;14.17;;;9.60;80.50;;;;;;5007247;28;20455;-44
2021/09/30 05:36:59;;;;;;;19.00;10.03;;;9.70;80.60;;;;;;5023554;28;20466;-44
2021/09/30 05:39:25;;;;;;;17.63;7.57;;;9.70;80.50;;;;;;5010760;28;20520;-44
2021/09/30 05:41:54;;;;;;;12.17;4.80;;;9.70;80.60;;;;;;5022914;28;20472;-44
2021/09/30 05:44:23;;;;;;;3.90;2.40;;;9.60;80.70;;;;;;5014617;28;20471;-45
2021/09/30 05:46:55;;;;;;;5.80;3.20;;;9.60;80.70;;;;;;5009311;28;20499;-45
2021/09/30 05:49:23;;;;;;;7.77;2.37;;;9.60;80.90;;;;;;5013248;28;20527;-45
2021/09/30 05:51:50;;;;;;;3.47;2.57;;;9.50;81.10;;;;;;5029785;28;20463;-45
2021/09/30 05:54:17;;;;;;;3.40;1.90;;;9.60;81.30;;;;;;5017397;28;20460;-45
2021/09/30 05:56:44;;;;;;;4.40;1.50;;;9.60;81.30;;;;;;5009420;28;20479;-45
2021/09/30 05:59:11;;;;;;;2.93;2.07;;;9.60;81.30;;;;;;5012121;28;20470;-45
2021/09/30 06:12:26;;;;;;;2.40;2.23;;;9.70;81.50;;;;;;5016096;28;20461;-45
2021/09/30 06:14:53;;;;;;;4.43;1.63;;;9.70;81.60;;;;;;5009388;28;20490;-45
2021/09/30 06:17:20;;;;;;;2.70;1.60;;;9.80;81.50;;;;;;5012893;28;20974;-45
2021/09/30 06:19:47;;;;;;;7.60;1.90;;;9.80;81.50;;;;;;5010980;28;20465;-45
2021/09/30 06:22:14;;;;;;;2.53;1.83;;;9.80;81.60;;;;;;5012851;28;20468;-45
2021/09/30 06:24:42;;;;;;;3.03;1.27;;;9.80;81.90;;;;;;5010828;28;20474;-45
2021/09/30 06:27:29;;;;;;;3.10;2.33;;;9.80;81.80;;;;;;5011802;28;20484;-45
2021/09/30 06:29:55;;;;;;;3.23;1.30;;;9.80;81.90;;;;;;5010968;28;20452;-45
2021/09/30 06:32:22;;;;;;;3.27;1.53;;;9.80;82.00;;;;;;5012542;28;20980;-45
2021/09/30 06:34:50;;;;;;;2.03;1.50;;;9.80;82.10;;;;;;5012723;28;20551;-45
2021/09/30 06:37:16;;;;;;;5.93;2.07;;;9.90;82.00;;;;;;5011880;28;20472;-45
2021/09/30 06:39:43;;;;;;;3.90;1.50;;;9.90;82.00;;;;;;5012466;28;20458;-45
2021/09/30 06:42:10;;;;;;;1.57;1.47;;;9.90;81.80;;;;;;5016526;28;20452;-45
2021/09/30 06:44:37;;;;;;;2.50;1.40;;;9.90;81.90;;;;;;5011186;28;20472;-46
2021/09/30 06:47:03;;;;;;;2.10;1.60;;;10.00;81.90;;;;;;5009871;28;20491;-45
2021/09/30 06:49:30;;;;;;;4.27;1.80;;;10.00;81.70;;;;;;5012881;28;20453;-45
2021/09/30 06:51:57;;;;;;;4.87;1.60;;;10.10;81.40;;;;;;5008234;28;20968;-45
2021/09/30 06:54:24;;;;;;;2.00;1.40;;;10.20;81.00;;;;;;5011196;28;20464;-45
2021/09/30 06:56:51;;;;;;;1.47;1.30;;;10.20;81.00;;;;;;5013344;28;20470;-45
2021/09/30 06:59:23;;;;;;;1.53;1.33;;;10.30;80.50;;;;;;5025576;28;20456;-45
2021/09/30 07:01:50;;;;;;;4.23;1.50;;;10.30;80.40;;;;;;5002631;28;20991;-45
2021/09/30 07:04:17;;;;;;;1.87;1.27;;;10.30;80.50;;;;;;5011749;28;20449;-45
2021/09/30 07:06:46;;;;;;;4.07;1.47;;;10.30;80.80;;;;;;5022036;28;20489;-45
2021/09/30 07:09:12;;;;;;;1.60;1.40;;;10.40;80.90;;;;;;5011861;28;20918;-45
2021/09/30 07:11:39;;;;;;;1.80;1.57;;;10.40;80.80;;;;;;5010909;28;20494;-45
2021/09/30 07:14:06;;;;;;;5.53;1.37;;;10.50;80.40;;;;;;5011115;28;20456;-44
2021/09/30 07:16:33;;;;;;;1.87;1.53;;;10.60;80.40;;;;;;5012627;28;20457;-44
2021/09/30 07:19:00;;;;;;;1.13;1.03;;;10.60;80.10;;;;;;5010843;28;20896;-45
2021/09/30 07:21:30;;;;;;;4.60;1.93;;;10.60;80.10;;;;;;5008117;28;20470;-45
2021/09/30 07:23:57;;;;;;;3.73;1.63;;;10.70;79.60;;;;;;5009960;28;20462;-45
2021/09/30 07:26:24;;;;;;;1.63;1.53;;;10.70;79.50;;;;;;5009485;28;20484;-45
2021/09/30 07:28:51;;;;;;;1.60;1.47;;;10.80;79.80;;;;;;5007660;28;20457;-45
2021/09/30 07:31:19;;;;;;;1.63;1.50;;;10.80;79.80;;;;;;5008724;28;20456;-45
2021/09/30 07:33:45;;;;;;;4.30;1.90;;;10.80;79.90;;;;;;5008469;28;20513;-45
2021/09/30 07:36:13;;;;;;;4.70;2.20;;;10.90;80.00;;;;;;5009504;28;20442;-45
2021/09/30 07:38:41;;;;;;;2.70;1.63;;;11.00;79.10;;;;;;5008565;28;20449;-45
2021/09/30 07:41:08;;;;;;;1.63;1.00;;;11.10;78.00;;;;;;5010316;28;20450;-45
2021/09/30 07:43:35;;;;;;;3.90;1.40;;;11.20;78.00;;;;;;5009606;28;20459;-45
2021/09/30 07:46:02;;;;;;;2.50;1.97;;;11.30;78.20;;;;;;5007833;28;20460;-45
2021/09/30 07:48:29;;;;;;;1.83;1.30;;;11.30;78.40;;;;;;5008443;28;20498;-45
2021/09/30 07:50:59;;;;;;;2.03;1.50;;;11.40;78.50;;;;;;5021473;28;20848;-44
2021/09/30 07:53:26;;;;;;;5.33;1.63;;;11.60;77.30;;;;;;5010080;28;21013;-44
2021/09/30 07:55:53;;;;;;;4.30;1.87;;;11.70;77.10;;;;;;5008098;28;20499;-44
2021/09/30 07:58:20;;;;;;;3.23;1.60;;;11.80;77.10;;;;;;5010399;28;20460;-45
2021/09/30 08:00:47;;;;;;;5.57;1.70;;;12.00;77.10;;;;;;5006421;28;20469;-46
2021/09/30 08:03:14;;;;;;;4.00;1.40;;;12.10;76.40;;;;;;5005865;28;20473;-45
2021/09/30 08:05:41;;;;;;;6.57;2.20;;;12.30;76.00;;;;;;5004821;28;20830;-46
2021/09/30 08:08:09;;;;;;;1.40;1.30;;;12.50;75.20;;;;;;5009019;28;20487;-46
2021/09/30 08:10:38;;;;;;;4.30;1.90;;;12.60;73.90;;;;;;5007831;28;20457;-46
2021/09/30 08:13:06;;;;;;;3.00;1.60;;;12.70;73.70;;;;;;5008110;28;20526;-43
2021/09/30 08:15:33;;;;;;;2.57;1.50;;;12.80;73.30;;;;;;5008107;28;20950;-45
2021/09/30 08:17:59;;;;;;;1.80;1.70;;;12.90;73.10;;;;;;5006710;28;20540;-45
2021/09/30 08:20:26;;;;;;;2.20;2.00;;;13.00;72.80;;;;;;5008520;28;20476;-45
2021/09/30 08:22:53;;;;;;;2.70;1.53;;;13.20;72.10;;;;;;5008464;28;20465;-45
2021/09/30 08:25:21;;;;;;;3.43;1.80;;;13.30;72.40;;;;;;5006509;28;20475;-45
2021/09/30 08:27:48;;;;;;;5.80;2.10;;;13.40;71.80;;;;;;5007517;28;20488;-45
2021/09/30 08:30:15;;;;;;;2.13;1.90;;;13.50;71.70;;;;;;5006176;28;20471;-45
2021/09/30 08:32:42;;;;;;;3.10;1.93;;;13.60;71.50;;;;;;5005131;28;20652;-45
2021/09/30 08:35:10;;;;;;;3.53;2.10;;;13.80;71.60;;;;;;5002119;28;20543;-45
2021/09/30 08:37:37;;;;;;;2.80;1.93;;;13.90;70.50;;;;;;5009691;28;21005;-45
2021/09/30 08:40:05;;;;;;;4.53;1.83;;;14.00;69.60;;;;;;5009170;28;20863;-45
2021/09/30 08:42:32;;;;;;;1.53;1.43;;;14.10;69.70;;;;;;5007926;28;20460;-46
2021/09/30 08:44:59;;;;;;;4.50;1.67;;;14.10;69.50;;;;;;5007035;28;20992;-46
2021/09/30 08:47:25;;;;;;;3.03;1.73;;;14.10;69.60;;;;;;5007910;28;20492;-46
2021/09/30 08:49:52;;;;;;;4.17;2.30;;;14.00;69.90;;;;;;5009295;28;20555;-46
2021/09/30 08:52:19;;;;;;;3.13;2.17;;;14.00;70.10;;;;;;5004606;28;20460;-45
2021/09/30 08:54:47;;;;;;;4.60;2.13;;;14.00;69.60;;;;;;5005778;28;20468;-45
2021/09/30 08:57:13;;;;;;;2.70;1.80;;;13.80;70.20;;;;;;5007590;28;20815;-45
2021/09/30 08:59:40;;;;;;;4.57;3.30;;;13.70;71.00;;;;;;5006385;28;20471;-45
2021/09/30 09:02:15;;;;;;;3.47;2.30;;;13.70;70.60;;;;;;5002592;28;21107;-45
2021/09/30 09:04:53;;;;;;;8.30;2.57;;;13.60;71.00;;;;;;5008696;28;20463;-45
2021/09/30 09:07:30;;;;;;;1.90;1.60;;;13.60;71.10;;;;;;5007435;28;20519;-45
2021/09/30 09:10:02;;;;;;;2.70;2.40;;;13.60;71.60;;;;;;5007364;28;20488;-45
2021/09/30 09:12:31;;;;;;;4.67;2.63;;;13.60;71.70;;;;;;5009899;28;20452;-45
2021/09/30 09:14:59;;;;;;;2.73;2.30;;;13.50;72.50;;;;;;5003632;28;20496;-45
2021/09/30 09:17:27;;;;;;;4.70;2.60;;;13.60;73.10;;;;;;5005732;28;20460;-45
2021/09/30 09:19:56;;;;;;;5.20;2.77;;;13.60;73.20;;;;;;5007742;28;20472;-45
2021/09/30 09:22:25;;;;;;;3.73;2.60;;;13.60;73.00;;;;;;5008026;28;20832;-45
2021/09/30 09:24:58;;;;;;;4.97;3.30;;;13.70;73.10;;;;;;5008310;28;20466;-45
2021/09/30 09:27:44;;;;;;;4.03;3.13;;;13.80;72.30;;;;;;5008033;28;20490;-45
2021/09/30 09:30:35;;;;;;;5.10;2.50;;;13.80;72.60;;;;;;5011927;28;20487;-45
2021/09/30 09:33:10;;;;;;;4.40;2.50;;;13.80;72.70;;;;;;5016094;28;20532;-45
2021/09/30 09:36:04;;;;;;;3.60;2.10;;;13.90;71.60;;;;;;5010194;28;20441;-45
2021/09/30 09:38:42;;;;;;;2.93;1.83;;;14.00;71.40;;;;;;5010447;28;20520;-45
2021/09/30 09:41:19;;;;;;;2.30;1.83;;;14.10;71.10;;;;;;5013005;28;20460;-45
2021/09/30 09:43:47;;;;;;;2.67;1.90;;;14.20;69.60;;;;;;5007816;28;20516;-45
2021/09/30 09:46:18;;;;;;;4.00;2.20;;;14.30;68.70;;;;;;5009954;28;20461;-45
2021/09/30 09:49:01;;;;;;;2.67;2.20;;;14.30;68.30;;;;;;5012573;28;20484;-45
2021/09/30 09:51:43;;;;;;;6.90;1.80;;;14.40;68.10;;;;;;5008206;28;20452;-45
2021/09/30 09:54:15;;;;;;;4.73;1.73;;;14.40;69.30;;;;;;5013293;28;20445;-45
2021/09/30 09:56:42;;;;;;;5.33;2.20;;;14.50;69.60;;;;;;5010920;28;20896;-45
2021/09/30 09:59:10;;;;;;;2.00;1.90;;;14.60;69.60;;;;;;5013641;28;20464;-45
2021/09/30 10:01:44;;;;;;;2.13;1.90;;;14.70;69.10;;;;;;5010448;28;20457;-45
2021/09/30 10:04:13;;;;;;;3.33;2.27;;;14.90;68.00;;;;;;5009879;28;20512;-45
2021/09/30 10:06:40;;;;;;;3.10;2.80;;;15.00;68.00;;;;;;5010401;28;20453;-46
2021/09/30 10:09:11;;;;;;;4.47;2.00;;;15.10;67.60;;;;;;5015693;28;20470;-46
2021/09/30 10:11:38;;;;;;;4.20;1.57;;;15.30;67.80;;;;;;5008266;28;20460;-46
2021/09/30 10:14:07;;;;;;;5.00;2.27;;;15.60;66.80;;;;;;5026342;28;20571;-45
2021/09/30 10:16:36;;;;;;;4.93;2.40;;;16.00;65.10;;;;;;5011555;28;20533;-45
2021/09/30 10:19:08;;;;;;;2.13;1.53;;;16.40;63.30;;;;;;5011609;28;20464;-45
2021/09/30 10:21:37;;;;;;;3.13;1.93;;;16.80;63.10;;;;;;5005240;28;20561;-45
2021/09/30 10:24:23;;;;;;;2.17;1.77;;;17.20;62.30;;;;;;5009910;28;20453;-45
2021/09/30 10:26:53;;;;;;;5.07;1.70;;;17.60;61.50;;;;;;5012188;28;20475;-45
2021/09/30 10:29:45;;;;;;;5.73;2.70;;;17.80;61.20;;;;;;5007375;28;20445;-45
2021/09/30 10:32:23;;;;;;;3.20;1.77;;;18.00;60.00;;;;;;5006941;28;20491;-45
2021/09/30 10:34:59;;;;;;;4.60;1.97;;;18.10;59.90;;;;;;5007366;28;20937;-45
2021/09/30 10:37:31;;;;;;;1.90;1.67;;;18.20;58.90;;;;;;5008175;28;20444;-45
2021/09/30 10:40:23;;;;;;;2.30;1.47;;;18.10;58.80;;;;;;5011703;28;20446;-45
2021/09/30 10:42:57;;;;;;;6.13;2.13;;;17.90;59.50;;;;;;5005492;28;20564;-45
2021/09/30 10:45:38;;;;;;;3.00;1.30;;;17.80;58.90;;;;;;5008129;28;20989;-45
2021/09/30 10:48:23;;;;;;;2.57;1.37;;;17.60;60.10;;;;;;5007204;28;20487;-45
2021/09/30 10:51:12;;;;;;;2.93;1.80;;;17.50;59.70;;;;;;5008125;28;20543;-45
2021/09/30 10:53:44;;;;;;;1.53;1.30;;;17.50;60.60;;;;;;5008251;28;20706;-45
2021/09/30 10:56:30;;;;;;;5.80;1.30;;;17.40;60.20;;;;;;5007565;28;20457;-45
2021/09/30 10:59:07;;;;;;;3.50;1.20;;;17.30;60.30;;;;;;5008457;28;20559;-45
2021/09/30 11:01:54;;;;;;;1.93;1.30;;;17.20;60.40;;;;;;5004148;28;20500;-45
2021/09/30 11:04:23;;;;;;;3.70;0.83;;;17.20;61.00;;;;;;5009758;28;20825;-45
2021/09/30 11:07:08;;;;;;;3.00;1.20;;;17.20;60.20;;;;;;5009799;28;21049;-45
2021/09/30 11:09:35;;;;;;;2.50;1.37;;;17.10;59.10;;;;;;5011391;28;20555;-45
2021/09/30 11:12:10;;;;;;;4.83;1.10;;;17.00;59.30;;;;;;5023655;28;20461;-45
2021/09/30 11:14:57;;;;;;;2.70;1.20;;;16.90;59.70;;;;;;5004592;28;20483;-46
2021/09/30 11:17:38;;;;;;;2.60;1.23;;;16.80;59.90;;;;;;5005623;28;20889;-45
2021/09/30 11:20:31;;;;;;;3.80;1.07;;;16.70;59.80;;;;;;5008232;28;20965;-45
2021/09/30 11:22:59;;;;;;;3.97;1.10;;;16.60;59.20;;;;;;5007319;28;20457;-45
2021/09/30 11:26:03;;;;;;;2.10;0.90;;;16.50;59.40;;;;;;5007590;28;20450;-45
2021/09/30 11:28:30;;;;;;;3.60;1.30;;;16.50;60.20;;;;;;5006765;28;20484;-45
2021/09/30 11:31:28;;;;;;;3.20;1.27;;;16.40;60.90;;;;;;5013154;28;20453;-45
2021/09/30 11:33:57;;;;;;;2.93;2.17;;;16.40;60.50;;;;;;5011806;28;20958;-45
2021/09/30 11:36:35;;;;;;;4.20;1.77;;;16.30;60.80;;;;;;5014743;28;20821;-45
2021/09/30 11:39:05;;;;;;;1.60;1.10;;;16.30;61.30;;;;;;5005141;28;20453;-45
2021/09/30 11:41:36;;;;;;;5.50;1.23;;;16.20;60.30;;;;;;5006853;28;20452;-45
2021/09/30 11:44:04;;;;;;;2.83;1.10;;;16.20;59.50;;;;;;5010338;28;20472;-45
2021/09/30 11:46:42;;;;;;;2.60;1.10;;;16.20;59.10;;;;;;5022029;28;20974;-45
2021/09/30 11:49:10;;;;;;;4.67;1.00;;;16.40;59.60;;;;;;5004771;28;20502;-46
2021/09/30 11:51:39;;;;;;;3.40;1.07;;;16.40;59.80;;;;;;5004921;28;20845;-45
2021/09/30 11:54:20;;;;;;;1.63;1.17;;;16.40;59.20;;;;;;5008995;28;20455;-45
2021/09/30 11:56:50;;;;;;;1.67;1.00;;;16.40;59.20;;;;;;5006637;28;20544;-45
2021/09/30 11:59:19;;;;;;;1.33;0.87;;;16.40;58.60;;;;;;5005314;28;20457;-45
2021/09/30 12:01:48;;;;;;;2.57;1.00;;;16.40;57.70;;;;;;5005201;28;20465;-45
2021/09/30 12:04:35;;;;;;;1.70;0.80;;;16.40;55.50;;;;;;5006865;28;20514;-45
2021/09/30 12:07:03;;;;;;;0.87;0.73;;;16.30;55.70;;;;;;5008418;28;20984;-46
2021/09/30 12:09:34;;;;;;;1.70;0.87;;;16.30;57.10;;;;;;5005840;28;20749;-45
2021/09/30 12:12:05;;;;;;;4.57;1.50;;;16.20;58.20;;;;;;5007842;28;20480;-45
2021/09/30 12:14:41;;;;;;;3.73;1.90;;;16.20;57.90;;;;;;5021618;28;20472;-45
2021/09/30 12:17:12;;;;;;;1.80;1.27;;;16.10;59.50;;;;;;5012213;28;20462;-45
2021/09/30 12:19:47;;;;;;;1.90;1.00;;;16.10;56.60;;;;;;5020457;28;20472;-45
2021/09/30 12:22:16;;;;;;;1.47;0.90;;;16.00;57.60;;;;;;5007917;28;20530;-45
2021/09/30 12:24:56;;;;;;;2.90;1.40;;;15.90;58.20;;;;;;5003005;28;20456;-45
2021/09/30 12:27:30;;;;;;;2.87;1.93;;;16.00;55.40;;;;;;5008510;28;20946;-44
2021/09/30 12:30:11;;;;;;;1.87;1.17;;;16.00;57.30;;;;;;5006135;28;20465;-44
2021/09/30 12:32:40;;;;;;;2.13;1.40;;;16.00;57.70;;;;;;5010145;28;20503;-45
2021/09/30 12:35:09;;;;;;;2.90;1.30;;;16.00;58.60;;;;;;5005175;28;20461;-45
2021/09/30 12:37:40;;;;;;;1.23;0.90;;;16.00;58.00;;;;;;5004228;28;20461;-44
2021/09/30 12:40:27;;;;;;;4.30;1.17;;;16.10;57.60;;;;;;5006518;28;20899;-45
2021/09/30 12:43:06;;;;;;;4.30;1.20;;;16.20;57.70;;;;;;5006395;28;20456;-45
2021/09/30 12:45:39;;;;;;;2.50;1.03;;;16.30;59.10;;;;;;5007769;28;20640;-44
2021/09/30 12:48:12;;;;;;;5.77;1.40;;;16.30;57.40;;;;;;5002223;28;20484;-45
2021/09/30 12:50:52;;;;;;;1.07;0.97;;;16.30;57.70;;;;;;5021097;28;20881;-45
2021/09/30 12:53:20;;;;;;;2.97;0.90;;;16.30;58.00;;;;;;5023281;28;20456;-45
2021/09/30 12:55:49;;;;;;;1.40;1.30;;;16.40;56.20;;;;;;5009590;28;20449;-45
2021/09/30 12:58:30;;;;;;;1.73;1.03;;;16.40;56.60;;;;;;5007119;28;20460;-45
2021/09/30 13:01:00;;;;;;;1.63;1.00;;;16.40;57.20;;;;;;5005126;28;20561;-45
2021/09/30 13:03:27;;;;;;;2.27;0.90;;;16.50;57.40;;;;;;5013760;28;20483;-45
2021/09/30 13:05:56;;;;;;;1.33;0.93;;;16.60;56.50;;;;;;5011321;28;20540;-45
2021/09/30 13:08:43;;;;;;;1.90;1.70;;;16.60;56.60;;;;;;5018434;28;20489;-45
2021/09/30 13:11:24;;;;;;;2.30;1.13;;;16.80;55.60;;;;;;5016277;28;20455;-45
2021/09/30 13:14:38;;;;;;;1.50;1.40;;;16.80;55.30;;;;;;5018402;28;20913;-45
2021/09/30 13:17:05;;;;;;;2.63;1.53;;;16.80;55.90;;;;;;5008997;28;20540;-44
2021/09/30 13:19:42;;;;;;;1.13;1.13;;;16.80;56.50;;;;;;5019886;28;20456;-45
2021/09/30 13:22:29;;;;;;;2.23;1.07;;;16.90;56.20;;;;;;5012597;28;20461;-45
2021/09/30 13:24:58;;;;;;;3.17;1.00;;;16.90;54.80;;;;;;5015494;28;20547;-45
2021/09/30 13:27:27;;;;;;;1.60;0.87;;;16.80;55.30;;;;;;5018903;28;20453;-45
2021/09/30 13:29:56;;;;;;;4.33;1.07;;;16.80;55.30;;;;;;5030561;28;20488;-45
2021/09/30 13:32:25;;;;;;;2.93;1.73;;;16.80;55.90;;;;;;5016114;28;20490;-45
2021/09/30 13:34:53;;;;;;;2.97;1.33;;;16.80;56.20;;;;;;5016666;28;20436;-44
2021/09/30 13:37:20;;;;;;;1.23;1.10;;;16.80;55.70;;;;;;5015854;28;20444;-45
2021/09/30 13:39:48;;;;;;;3.13;1.30;;;16.80;55.70;;;;;;5017902;28;20540;-45
2021/09/30 13:42:15;;;;;;;1.97;1.20;;;16.80;55.30;;;;;;5016194;28;20476;-45
2021/09/30 13:44:42;;;;;;;3.70;0.83;;;16.80;55.30;;;;;;5014250;28;20471;-45
2021/09/30 13:47:08;;;;;;;4.43;1.30;;;16.70;55.40;;;;;;5020379;28;20474;-45
2021/09/30 13:49:35;;;;;;;1.57;0.87;;;16.70;55.00;;;;;;5011481;28;20503;-45
2021/09/30 13:52:03;;;;;;;1.57;1.07;;;16.70;54.20;;;;;;5016969;28;20524;-45
2021/09/30 13:54:29;;;;;;;1.80;0.93;;;16.70;54.10;;;;;;5015278;28;20529;-45
2021/09/30 13:56:56;;;;;;;1.43;0.90;;;16.70;53.80;;;;;;5014996;28;20505;-45
2021/09/30 13:59:23;;;;;;;2.40;1.00;;;16.70;53.60;;;;;;5016591;28;20453;-44
2021/09/30 14:02:10;;;;;;;0.70;0.60;;;16.60;53.70;;;;;;5012716;28;20452;-45
2021/09/30 14:04:36;;;;;;;2.73;1.10;;;16.60;52.30;;;;;;5014301;28;20459;-45
2021/09/30 14:07:05;;;;;;;0.83;0.80;;;16.60;52.30;;;;;;5030662;28;20467;-45
2021/09/30 14:09:32;;;;;;;3.13;0.90;;;16.60;53.00;;;;;;5018595;28;20928;-45
2021/09/30 14:12:01;;;;;;;3.03;0.80;;;16.60;52.80;;;;;;5014913;28;20449;-45
2021/09/30 14:14:28;;;;;;;1.77;1.17;;;16.60;53.00;;;;;;5015121;28;20460;-44
2021/09/30 14:16:55;;;;;;;3.60;1.00;;;16.50;53.60;;;;;;5016627;28;20942;-44
2021/09/30 14:19:26;;;;;;;5.97;2.70;;;16.50;54.10;;;;;;5029392;28;20453;-44
2021/09/30 14:21:53;;;;;;;2.57;1.20;;;16.50;53.40;;;;;;5020339;28;20500;-45
2021/09/30 14:24:20;;;;;;;3.83;1.10;;;16.50;53.00;;;;;;5013739;28;20455;-45
2021/09/30 14:26:47;;;;;;;1.50;1.40;;;16.50;53.40;;;;;;5011758;28;21053;-45
2021/09/30 14:29:15;;;;;;;2.57;1.00;;;16.50;53.90;;;;;;5014204;28;20496;-44
2021/09/30 14:31:42;;;;;;;283.97;26.93;;;16.40;54.00;;;;;;5021952;28;20448;-45
2021/09/30 14:34:08;;;;;;;14.17;2.73;;;16.40;54.50;;;;;;5016901;28;20821;-45
2021/09/30 14:36:35;;;;;;;4.73;1.10;;;16.40;54.50;;;;;;5012855;28;20479;-45
2021/09/30 14:39:04;;;;;;;3.50;0.90;;;16.40;54.80;;;;;;5013890;28;21130;-45
2021/09/30 14:41:30;;;;;;;4.73;1.30;;;16.40;54.20;;;;;;5014968;28;20678;-45
2021/09/30 14:43:57;;;;;;;3.00;1.20;;;16.50;53.80;;;;;;5019982;28;20451;-45
2021/09/30 14:46:24;;;;;;;3.93;1.50;;;16.50;53.50;;;;;;5013763;28;20460;-45
2021/09/30 14:48:51;;;;;;;1.90;1.37;;;16.50;54.00;;;;;;5008749;28;20484;-45
2021/09/30 14:51:17;;;;;;;2.57;1.10;;;16.50;55.10;;;;;;5019579;28;20467;-45
2021/09/30 14:53:44;;;;;;;2.43;1.43;;;16.40;55.60;;;;;;5019875;28;20447;-45
2021/09/30 14:56:11;;;;;;;2.37;1.40;;;16.40;54.80;;;;;;5016027;28;20461;-45
2021/09/30 14:58:38;;;;;;;1.03;0.83;;;16.30;55.70;;;;;;5014696;28;20456;-45
2021/09/30 15:01:06;;;;;;;1.97;1.03;;;16.30;56.00;;;;;;5013830;28;20863;-45
2021/09/30 15:03:33;;;;;;;2.33;1.40;;;16.30;56.20;;;;;;5014888;28;20464;-45
2021/09/30 15:06:02;;;;;;;2.00;1.10;;;16.30;56.00;;;;;;5012797;28;20468;-45
2021/09/30 15:08:29;;;;;;;2.33;1.10;;;16.30;55.90;;;;;;5028193;28;20966;-44
2021/09/30 15:10:56;;;;;;;2.70;1.23;;;16.20;56.40;;;;;;5009416;28;20454;-45
2021/09/30 15:13:23;;;;;;;4.97;1.53;;;16.10;56.60;;;;;;4995741;28;20477;-44
2021/09/30 15:15:49;;;;;;;2.63;1.00;;;16.20;56.80;;;;;;5015261;28;20474;-44
2021/09/30 15:18:28;;;;;;;1.63;0.97;;;16.20;56.40;;;;;;5029553;28;20453;-44
2021/09/30 15:23:39;;;;;;;3.80;1.23;;;16.30;54.40;;;;;;5011497;28;20860;-45
2021/09/30 15:26:06;;;;;;;0.87;0.70;;;16.20;55.90;;;;;;5016065;28;20792;-45
2021/09/30 15:28:36;;;;;;;4.83;1.10;;;16.20;55.00;;;;;;5012253;28;20507;-45
2021/09/30 15:31:04;;;;;;;2.63;1.47;;;16.20;54.20;;;;;;5014898;28;20452;-45
2021/09/30 15:33:31;;;;;;;1.00;0.90;;;16.20;55.40;;;;;;5011577;28;20460;-45
2021/09/30 15:35:57;;;;;;;2.03;0.83;;;16.10;55.80;;;;;;5012789;28;20448;-45
2021/09/30 15:38:26;;;;;;;2.10;1.10;;;16.00;56.40;;;;;;5012983;28;20820;-45
2021/09/30 15:40:56;;;;;;;6.53;2.10;;;16.00;55.90;;;;;;5014531;28;20455;-45
2021/09/30 15:43:41;;;;;;;2.47;1.20;;;16.00;56.20;;;;;;5007986;28;20540;-45
2021/09/30 15:46:08;;;;;;;2.10;1.17;;;15.90;56.40;;;;;;5015831;28;20463;-45
2021/09/30 15:48:35;;;;;;;2.57;1.10;;;16.00;56.70;;;;;;5012936;28;20484;-45
2021/09/30 15:51:02;;;;;;;1.50;0.90;;;15.90;57.00;;;;;;5012474;28;20506;-45
2021/09/30 15:53:29;;;;;;;1.43;1.10;;;15.90;57.20;;;;;;5015693;28;20921;-45
2021/09/30 15:55:56;;;;;;;2.83;0.70;;;15.90;57.10;;;;;;5012735;28;20449;-45
2021/09/30 15:58:23;;;;;;;2.33;1.23;;;15.90;57.30;;;;;;5012231;28;20446;-45